Time;durP1;ratioP1;P1;durP2;ratioP2;P2;SDS_P1;SDS_P2;PMS_P1;PMS_P2;Temp;Humidity;BMP_temperature;BMP_pressure;BME280_temperature;BME280_humidity;BME280_pressure;Samples;Min_cycle;Max_cycle;Signal;HPM_P1;HPM_P2
2023/12/15 00:00:14;;;;;;;;;;;18.90;60.10;;;;;;5061640;28;1312;-68
2023/12/15 00:02:40;;;;;;;;;;;18.90;60.10;;;;;;5060976;28;1272;-69
2023/12/15 00:05:05;;;;;;;;;;;18.90;60.10;;;;;;5094108;28;1575;-69
2023/12/15 00:07:31;;;;;;;;;;;18.90;60.10;;;;;;5067765;28;1738;-70
2023/12/15 00:09:56;;;;;;;;;;;18.90;60.20;;;;;;5060198;28;1374;-70
2023/12/15 00:12:22;;;;;;;;;;;18.90;60.20;;;;;;5060383;28;1522;-69
2023/12/15 00:14:47;;;;;;;;;;;18.90;60.20;;;;;;5061067;28;1914;-68
2023/12/15 00:17:13;;;;;;;;;;;18.90;60.20;;;;;;5060344;28;1502;-70
2023/12/15 00:19:38;;;;;;;;;;;18.80;60.20;;;;;;5059996;28;1338;-69
2023/12/15 00:22:04;;;;;;;;;;;18.80;60.30;;;;;;5059907;28;1243;-70
2023/12/15 00:24:29;;;;;;;;;;;18.80;60.30;;;;;;5059841;28;1451;-69
2023/12/15 00:26:55;;;;;;;;;;;18.80;60.30;;;;;;5058753;28;1459;-69
2023/12/15 00:29:21;;;;;;;;;;;18.80;60.30;;;;;;5058853;28;1360;-69
2023/12/15 00:31:46;;;;;;;;;;;18.80;60.30;;;;;;5059453;28;1455;-68
2023/12/15 00:34:12;;;;;;;;;;;18.80;60.30;;;;;;5061261;28;1902;-68
2023/12/15 00:36:37;;;;;;;;;;;18.80;60.40;;;;;;5061150;28;1381;-68
2023/12/15 00:39:03;;;;;;;;;;;18.80;60.40;;;;;;5058257;28;1567;-67
2023/12/15 00:41:28;;;;;;;;;;;18.80;60.40;;;;;;5059231;28;1341;-68
2023/12/15 00:43:54;;;;;;;;;;;18.80;60.40;;;;;;5060429;28;1119;-68
2023/12/15 00:46:19;;;;;;;;;;;18.80;60.50;;;;;;5058198;28;1390;-68
2023/12/15 00:48:47;;;;;;;;;;;18.80;60.40;;;;;;5060822;28;1495;-67
2023/12/15 00:51:13;;;;;;;;;;;18.80;60.50;;;;;;5058337;28;1263;-69
2023/12/15 00:53:38;;;;;;;;;;;18.80;60.50;;;;;;5060065;28;1124;-68
2023/12/15 00:56:04;;;;;;;;;;;18.80;60.50;;;;;;5059094;28;1973;-69
2023/12/15 00:58:29;;;;;;;;;;;18.80;60.50;;;;;;5089028;28;1478;-69
2023/12/15 01:00:55;;;;;;;;;;;18.80;60.60;;;;;;5059925;28;1339;-68
2023/12/15 01:03:20;;;;;;;;;;;18.80;60.60;;;;;;5062508;28;1265;-69
2023/12/15 01:05:46;;;;;;;;;;;18.80;60.60;;;;;;5057260;28;1330;-69
2023/12/15 01:08:11;;;;;;;;;;;18.70;60.50;;;;;;5060522;28;1349;-69
2023/12/15 01:10:37;;;;;;;;;;;18.70;60.50;;;;;;5060255;28;1311;-68
2023/12/15 01:13:02;;;;;;;;;;;18.70;60.60;;;;;;5058999;28;1356;-70
2023/12/15 01:15:28;;;;;;;;;;;18.70;60.60;;;;;;5091064;28;1901;-69
2023/12/15 01:17:53;;;;;;;;;;;18.70;60.60;;;;;;5061176;28;1344;-69
2023/12/15 01:20:19;;;;;;;;;;;18.70;60.60;;;;;;5058434;28;1605;-68
2023/12/15 01:22:44;;;;;;;;;;;18.70;60.60;;;;;;5058024;28;1314;-69
2023/12/15 01:25:10;;;;;;;;;;;18.70;60.60;;;;;;5056542;28;1465;-68
2023/12/15 01:27:35;;;;;;;;;;;18.70;60.60;;;;;;5059424;28;1710;-69
2023/12/15 01:30:01;;;;;;;;;;;18.70;60.70;;;;;;5056836;28;1419;-68
2023/12/15 01:32:26;;;;;;;;;;;18.70;60.70;;;;;;5060130;28;1245;-68
2023/12/15 01:34:51;;;;;;;;;;;18.70;60.70;;;;;;5058746;28;1918;-69
2023/12/15 01:37:17;;;;;;;;;;;18.70;60.70;;;;;;5056291;28;1551;-68
2023/12/15 01:39:42;;;;;;;;;;;18.70;60.70;;;;;;5058013;28;1509;-67
2023/12/15 01:42:08;;;;;;;;;;;18.70;60.80;;;;;;5055432;28;1430;-68
2023/12/15 01:44:33;;;;;;;;;;;18.70;60.80;;;;;;5060468;28;926;-70
2023/12/15 01:47:00;;;;;;;;;;;18.70;60.80;;;;;;5091460;28;1503;-69
2023/12/15 01:49:27;;;;;;;;;;;18.70;60.80;;;;;;5059500;28;1305;-69
2023/12/15 01:51:52;;;;;;;;;;;18.70;60.80;;;;;;5055529;28;1311;-69
2023/12/15 01:54:18;;;;;;;;;;;18.70;60.90;;;;;;5058878;28;2024;-69
2023/12/15 01:56:43;;;;;;;;;;;18.70;60.80;;;;;;5057098;28;1438;-70
2023/12/15 01:59:10;;;;;;;;;;;18.70;60.90;;;;;;5089829;28;1364;-69
2023/12/15 02:01:35;;;;;;;;;;;18.70;60.90;;;;;;5057599;28;1620;-69
2023/12/15 02:04:00;;;;;;;;;;;18.70;60.90;;;;;;5058774;28;1819;-69
2023/12/15 02:06:26;;;;;;;;;;;18.70;60.90;;;;;;5056238;28;1632;-70
2023/12/15 02:08:52;;;;;;;;;;;18.70;60.90;;;;;;5057322;28;1553;-70
2023/12/15 02:11:17;;;;;;;;;;;18.70;60.90;;;;;;5058274;28;1590;-70
2023/12/15 02:13:42;;;;;;;;;;;18.70;60.80;;;;;;5058289;28;1663;-69
2023/12/15 02:16:08;;;;;;;;;;;18.70;60.80;;;;;;5065313;28;1976;-69
2023/12/15 02:18:33;;;;;;;;;;;18.70;60.80;;;;;;5091169;28;1610;-70
2023/12/15 02:20:59;;;;;;;;;;;18.70;60.70;;;;;;5060181;28;1379;-70
2023/12/15 02:23:24;;;;;;;;;;;18.70;60.70;;;;;;5057227;28;1475;-71
2023/12/15 02:25:50;;;;;;;;;;;18.80;60.70;;;;;;5057736;28;1263;-70
2023/12/15 02:28:15;;;;;;;;;;;18.80;60.70;;;;;;5058474;28;1592;-68
2023/12/15 02:30:41;;;;;;;;;;;18.80;60.70;;;;;;5055822;28;1352;-70
2023/12/15 02:33:06;;;;;;;;;;;18.80;60.60;;;;;;5054624;28;1447;-70
2023/12/15 02:35:31;;;;;;;;;;;18.80;60.60;;;;;;5057883;28;1965;-68
2023/12/15 02:37:57;;;;;;;;;;;18.80;60.50;;;;;;5058484;28;1433;-68
2023/12/15 02:40:22;;;;;;;;;;;18.80;60.50;;;;;;5060243;28;1557;-69
2023/12/15 02:42:48;;;;;;;;;;;18.80;60.50;;;;;;5057870;28;1544;-69
2023/12/15 02:45:13;;;;;;;;;;;18.90;60.50;;;;;;5056672;28;1400;-68
2023/12/15 02:47:39;;;;;;;;;;;18.80;60.40;;;;;;5056487;28;1332;-69
2023/12/15 02:50:05;;;;;;;;;;;18.90;60.40;;;;;;5056822;28;1273;-69
2023/12/15 02:52:30;;;;;;;;;;;18.80;60.40;;;;;;5058431;28;1437;-69
2023/12/15 02:54:56;;;;;;;;;;;18.90;60.50;;;;;;5057643;28;1894;-68
2023/12/15 02:57:21;;;;;;;;;;;18.80;60.40;;;;;;5058686;28;1364;-68
2023/12/15 02:59:46;;;;;;;;;;;18.90;61.10;;;;;;5056425;28;1370;-69
2023/12/15 03:02:12;;;;;;;;;;;18.80;60.30;;;;;;5057549;28;1373;-69
2023/12/15 03:04:37;;;;;;;;;;;18.90;60.40;;;;;;5057412;28;1618;-70
2023/12/15 03:07:03;;;;;;;;;;;18.90;60.30;;;;;;5056683;28;1303;-69
2023/12/15 03:09:28;;;;;;;;;;;18.90;60.40;;;;;;5057747;28;1312;-70
2023/12/15 03:11:54;;;;;;;;;;;18.90;60.40;;;;;;5057275;28;1251;-70
2023/12/15 03:14:19;;;;;;;;;;;18.90;60.40;;;;;;5062444;28;1902;-70
2023/12/15 03:16:45;;;;;;;;;;;18.90;60.30;;;;;;5062626;28;1046;-71
2023/12/15 03:19:10;;;;;;;;;;;18.90;60.40;;;;;;5061244;28;1443;-69
2023/12/15 03:21:36;;;;;;;;;;;18.90;60.40;;;;;;5060322;28;1462;-70
2023/12/15 03:24:01;;;;;;;;;;;18.90;60.30;;;;;;5061998;28;1254;-70
2023/12/15 03:26:26;;;;;;;;;;;18.90;60.30;;;;;;5062187;28;1355;-69
2023/12/15 03:28:52;;;;;;;;;;;18.90;60.30;;;;;;5060199;28;1377;-70
2023/12/15 03:31:18;;;;;;;;;;;18.90;60.30;;;;;;5060852;28;1360;-68
2023/12/15 03:33:43;;;;;;;;;;;18.90;60.20;;;;;;5062511;28;1607;-68
2023/12/15 03:36:09;;;;;;;;;;;18.90;60.20;;;;;;5060199;28;1957;-68
2023/12/15 03:38:34;;;;;;;;;;;18.90;60.40;;;;;;5060147;28;1367;-68
2023/12/15 03:41:00;;;;;;;;;;;18.90;60.20;;;;;;5059962;28;1351;-68
2023/12/15 03:43:25;;;;;;;;;;;18.90;60.20;;;;;;5058190;28;1409;-68
2023/12/15 03:45:51;;;;;;;;;;;18.90;60.20;;;;;;5060371;28;1694;-68
2023/12/15 03:48:16;;;;;;;;;;;18.90;60.20;;;;;;5057827;28;1451;-68
2023/12/15 03:50:41;;;;;;;;;;;18.90;60.20;;;;;;5090521;28;1452;-68
2023/12/15 03:53:07;;;;;;;;;;;18.90;60.20;;;;;;5062059;28;1227;-69
2023/12/15 03:55:33;;;;;;;;;;;18.90;60.20;;;;;;5059248;28;1902;-68
2023/12/15 03:57:58;;;;;;;;;;;18.90;60.20;;;;;;5060314;28;1154;-67
2023/12/15 04:00:24;;;;;;;;;;;18.90;60.20;;;;;;5063748;28;1464;-69
2023/12/15 04:02:49;;;;;;;;;;;18.90;60.20;;;;;;5059080;28;1203;-67
2023/12/15 04:05:15;;;;;;;;;;;18.90;60.20;;;;;;5060789;28;1342;-68
2023/12/15 04:07:41;;;;;;;;;;;18.90;60.20;;;;;;5062684;28;1355;-68
2023/12/15 04:10:06;;;;;;;;;;;18.90;60.30;;;;;;5058306;28;1487;-68
2023/12/15 04:12:32;;;;;;;;;;;18.90;60.30;;;;;;5062131;28;1317;-69
2023/12/15 04:14:57;;;;;;;;;;;18.90;60.30;;;;;;5061163;28;1910;-67
2023/12/15 04:17:23;;;;;;;;;;;18.90;60.30;;;;;;5058557;28;1300;-68
2023/12/15 04:19:48;;;;;;;;;;;18.90;60.30;;;;;;5059184;28;1390;-68
2023/12/15 04:22:14;;;;;;;;;;;18.90;60.30;;;;;;5061508;28;1300;-68
2023/12/15 04:24:40;;;;;;;;;;;18.90;60.30;;;;;;5056342;28;1736;-69
2023/12/15 04:27:05;;;;;;;;;;;18.90;60.30;;;;;;5059859;28;1299;-69
2023/12/15 04:29:31;;;;;;;;;;;18.90;60.30;;;;;;5058606;28;1387;-69
2023/12/15 04:31:56;;;;;;;;;;;18.90;60.20;;;;;;5059938;28;1351;-68
2023/12/15 04:34:21;;;;;;;;;;;18.90;60.20;;;;;;5060454;28;1997;-68
2023/12/15 04:36:47;;;;;;;;;;;18.90;60.30;;;;;;5057976;28;1240;-67
2023/12/15 04:39:12;;;;;;;;;;;18.90;60.30;;;;;;5060113;28;1366;-68
2023/12/15 04:41:38;;;;;;;;;;;18.90;60.20;;;;;;5058638;28;1448;-67
2023/12/15 04:44:03;;;;;;;;;;;18.90;60.30;;;;;;5061534;28;1026;-68
2023/12/15 04:46:29;;;;;;;;;;;18.90;60.30;;;;;;5060475;28;1040;-68
2023/12/15 04:48:55;;;;;;;;;;;18.90;60.20;;;;;;5093487;28;1410;-67
2023/12/15 04:51:20;;;;;;;;;;;18.90;60.30;;;;;;5060407;28;1120;-69
2023/12/15 04:53:47;;;;;;;;;;;18.90;60.30;;;;;;5092389;28;1535;-67
2023/12/15 04:56:13;;;;;;;;;;;18.90;60.30;;;;;;5089444;28;1910;-66
2023/12/15 04:58:38;;;;;;;;;;;18.90;60.30;;;;;;5059511;28;1324;-67
2023/12/15 05:01:04;;;;;;;;;;;18.90;60.30;;;;;;5090719;28;1271;-67
2023/12/15 05:03:30;;;;;;;;;;;18.90;60.30;;;;;;5061051;28;1445;-70
2023/12/15 05:05:56;;;;;;;;;;;18.90;60.30;;;;;;5059020;28;1166;-71
2023/12/15 05:08:21;;;;;;;;;;;18.90;60.40;;;;;;5056584;28;1417;-70
2023/12/15 05:10:47;;;;;;;;;;;18.90;60.50;;;;;;5056561;28;1462;-70
2023/12/15 05:13:12;;;;;;;;;;;19.00;60.40;;;;;;5089868;28;1382;-70
2023/12/15 05:15:38;;;;;;;;;;;19.00;60.40;;;;;;5059049;28;1909;-71
2023/12/15 05:18:03;;;;;;;;;;;19.10;60.40;;;;;;5059263;28;1335;-70
2023/12/15 05:20:29;;;;;;;;;;;19.20;60.40;;;;;;5057707;28;1436;-71
2023/12/15 05:22:54;;;;;;;;;;;19.30;60.20;;;;;;5058337;28;1250;-71
2023/12/15 05:25:20;;;;;;;;;;;19.40;59.90;;;;;;5058618;28;1262;-71
2023/12/15 05:27:45;;;;;;;;;;;19.60;59.70;;;;;;5059854;28;1245;-70
2023/12/15 05:30:11;;;;;;;;;;;19.70;59.40;;;;;;5056720;28;1382;-70
2023/12/15 05:32:37;;;;;;;;;;;19.80;59.10;;;;;;5058440;28;1962;-70
2023/12/15 05:35:03;;;;;;;;;;;19.90;58.80;;;;;;5058054;28;1898;-71
2023/12/15 05:37:28;;;;;;;;;;;20.10;58.60;;;;;;5059424;28;1364;-69
2023/12/15 05:39:54;;;;;;;;;;;20.20;58.90;;;;;;5058799;28;1402;-70
2023/12/15 05:42:19;;;;;;;;;;;20.30;58.10;;;;;;5090241;28;1572;-71
2023/12/15 05:44:45;;;;;;;;;;;20.40;57.90;;;;;;5092517;28;1344;-70
2023/12/15 05:47:10;;;;;;;;;;;20.50;57.60;;;;;;5060186;28;1250;-70
2023/12/15 05:49:39;;;;;;;;;;;20.60;57.50;;;;;;5057210;28;1451;-70
2023/12/15 05:52:05;;;;;;;;;;;20.70;57.30;;;;;;5059169;28;1323;-70
2023/12/15 05:54:31;;;;;;;;;;;20.80;57.10;;;;;;5091851;28;1894;-71
2023/12/15 05:56:56;;;;;;;;;;;20.90;56.90;;;;;;5057998;28;1466;-67
2023/12/15 05:59:22;;;;;;;;;;;20.90;56.70;;;;;;5058838;28;1229;-68
2023/12/15 06:01:47;;;;;;;;;;;21.00;56.70;;;;;;5058993;28;1347;-68
2023/12/15 06:04:12;;;;;;;;;;;21.00;56.50;;;;;;5060078;28;1454;-67
2023/12/15 06:06:38;;;;;;;;;;;21.10;56.40;;;;;;5061359;28;1484;-67
2023/12/15 06:09:03;;;;;;;;;;;21.10;56.30;;;;;;5058677;28;1397;-68
2023/12/15 06:11:29;;;;;;;;;;;21.20;56.20;;;;;;5061429;28;1052;-70
2023/12/15 06:13:56;;;;;;;;;;;21.10;56.10;;;;;;5057417;28;1242;-69
2023/12/15 06:16:21;;;;;;;;;;;21.20;56.10;;;;;;5056002;28;1910;-66
2023/12/15 06:18:47;;;;;;;;;;;21.20;56.10;;;;;;5055471;28;1360;-67
2023/12/15 06:21:19;;;;;;;;;;;21.20;56.10;;;;;;5088179;28;1681;-67
2023/12/15 06:23:45;;;;;;;;;;;21.20;56.10;;;;;;5056902;28;1420;-69
2023/12/15 06:26:16;;;;;;;;;;;21.20;56.10;;;;;;5060534;28;906;-69
2023/12/15 06:28:41;;;;;;;;;;;21.20;56.10;;;;;;5092322;28;1392;-70
2023/12/15 06:31:07;;;;;;;;;;;21.20;56.20;;;;;;5058176;28;1349;-69
2023/12/15 06:33:32;;;;;;;;;;;21.20;56.20;;;;;;5057438;28;1384;-69
2023/12/15 06:35:58;;;;;;;;;;;21.20;56.20;;;;;;5057608;28;1910;-69
2023/12/15 06:38:23;;;;;;;;;;;21.20;56.20;;;;;;5057883;28;1502;-70
2023/12/15 06:40:48;;;;;;;;;;;21.20;56.30;;;;;;5058798;28;1201;-70
2023/12/15 06:43:14;;;;;;;;;;;21.20;56.30;;;;;;5058210;28;1249;-70
2023/12/15 06:45:40;;;;;;;;;;;21.10;56.30;;;;;;5055941;28;1454;-70
2023/12/15 06:48:05;;;;;;;;;;;21.10;56.30;;;;;;5063935;28;1371;-70
2023/12/15 06:50:31;;;;;;;;;;;21.10;56.40;;;;;;5063888;28;1146;-70
2023/12/15 06:52:56;;;;;;;;;;;21.10;56.50;;;;;;5062503;28;1130;-70
2023/12/15 06:55:22;;;;;;;;;;;21.00;56.40;;;;;;5061654;28;1906;-69
2023/12/15 06:57:47;;;;;;;;;;;21.00;56.50;;;;;;5062126;28;1247;-70
2023/12/15 07:00:13;;;;;;;;;;;21.00;56.60;;;;;;5061191;28;1276;-70
2023/12/15 07:02:38;;;;;;;;;;;21.00;56.70;;;;;;5060584;28;1548;-71
2023/12/15 07:05:04;;;;;;;;;;;20.90;56.70;;;;;;5060330;28;1419;-71
2023/12/15 07:07:29;;;;;;;;;;;20.90;56.70;;;;;;5058144;28;1551;-70
2023/12/15 07:09:55;;;;;;;;;;;20.90;56.80;;;;;;5061139;28;1272;-71
2023/12/15 07:12:21;;;;;;;;;;;20.90;56.80;;;;;;5059035;28;1611;-71
2023/12/15 07:14:46;;;;;;;;;;;20.80;56.90;;;;;;5058431;28;1967;-69
2023/12/15 07:17:12;;;;;;;;;;;20.80;56.90;;;;;;5057556;28;1295;-69
2023/12/15 07:19:37;;;;;;;;;;;20.80;57.00;;;;;;5060922;28;1367;-69
2023/12/15 07:22:03;;;;;;;;;;;20.80;57.10;;;;;;5060691;28;1442;-70
2023/12/15 07:24:29;;;;;;;;;;;20.70;57.10;;;;;;5060643;28;1337;-72
2023/12/15 07:26:54;;;;;;;;;;;20.70;57.10;;;;;;5062351;28;1472;-70
2023/12/15 07:29:21;;;;;;;;;;;20.70;57.20;;;;;;5061214;28;1363;-70
2023/12/15 07:31:48;;;;;;;;;;;20.70;57.30;;;;;;5060800;28;1362;-70
2023/12/15 07:34:13;;;;;;;;;;;20.60;57.30;;;;;;5061134;28;1934;-69
2023/12/15 07:36:39;;;;;;;;;;;20.60;57.40;;;;;;5062746;28;1898;-69
2023/12/15 07:39:04;;;;;;;;;;;20.60;57.50;;;;;;5060267;28;1486;-68
2023/12/15 07:41:30;;;;;;;;;;;20.60;57.50;;;;;;5065053;28;875;-68
2023/12/15 07:43:55;;;;;;;;;;;20.50;57.60;;;;;;5059138;28;935;-67
2023/12/15 07:46:21;;;;;;;;;;;20.50;57.60;;;;;;5059603;28;1813;-68
2023/12/15 07:48:46;;;;;;;;;;;20.50;57.60;;;;;;5060313;28;1928;-69
2023/12/15 07:51:18;;;;;;;;;;;20.50;57.70;;;;;;5061690;28;1161;-70
2023/12/15 07:53:44;;;;;;;;;;;20.50;57.80;;;;;;5091743;28;1487;-70
2023/12/15 07:56:17;;;;;;;;;;;20.40;57.80;;;;;;5093027;28;1906;-69
2023/12/15 07:58:43;;;;;;;;;;;20.40;57.90;;;;;;5059880;28;1941;-69
2023/12/15 08:01:09;;;;;;;;;;;20.40;57.90;;;;;;5061173;28;1942;-69
2023/12/15 08:03:34;;;;;;;;;;;20.40;58.20;;;;;;5063076;28;1963;-69
2023/12/15 08:06:00;;;;;;;;;;;20.40;59.00;;;;;;5093221;28;1423;-69
2023/12/15 08:08:26;;;;;;;;;;;20.40;59.20;;;;;;5059005;28;1926;-67
2023/12/15 08:10:52;;;;;;;;;;;20.40;59.10;;;;;;5059581;28;1857;-70
2023/12/15 08:13:17;;;;;;;;;;;20.40;59.30;;;;;;5062730;28;1301;-69
2023/12/15 08:15:43;;;;;;;;;;;20.40;59.50;;;;;;5063002;28;1937;-69
2023/12/15 08:18:09;;;;;;;;;;;20.40;59.50;;;;;;5062715;28;1925;-69
2023/12/15 08:20:34;;;;;;;;;;;20.40;59.50;;;;;;5061695;28;1879;-69
2023/12/15 08:22:59;;;;;;;;;;;20.40;59.50;;;;;;5059550;28;1389;-69
2023/12/15 08:25:25;;;;;;;;;;;20.40;59.60;;;;;;5060369;28;1478;-69
2023/12/15 08:27:50;;;;;;;;;;;20.40;59.70;;;;;;5062754;28;1524;-69
2023/12/15 08:30:16;;;;;;;;;;;20.40;59.80;;;;;;5063505;28;1918;-69
2023/12/15 08:32:41;;;;;;;;;;;20.40;60.00;;;;;;5062859;28;2293;-68
2023/12/15 08:35:07;;;;;;;;;;;20.40;60.00;;;;;;5061576;28;1967;-71
2023/12/15 08:37:32;;;;;;;;;;;20.40;60.00;;;;;;5062911;28;1435;-70
2023/12/15 08:39:58;;;;;;;;;;;20.40;60.10;;;;;;5064903;28;1389;-70
2023/12/15 08:42:23;;;;;;;;;;;20.40;60.00;;;;;;5063146;28;1421;-71
2023/12/15 08:44:49;;;;;;;;;;;20.40;60.10;;;;;;5051705;28;1374;-70
2023/12/15 08:47:17;;;;;;;;;;;20.40;60.10;;;;;;5060993;28;1266;-72
2023/12/15 08:49:43;;;;;;;;;;;20.40;60.20;;;;;;5059055;28;1526;-71
2023/12/15 08:52:08;;;;;;;;;;;20.40;60.30;;;;;;5075238;28;1505;-71
2023/12/15 08:54:34;;;;;;;;;;;20.40;60.20;;;;;;5059765;28;1898;-71
2023/12/15 08:56:59;;;;;;;;;;;20.40;60.30;;;;;;5060555;28;1473;-70
2023/12/15 08:59:25;;;;;;;;;;;20.40;60.20;;;;;;5066671;28;1382;-69
2023/12/15 09:01:50;;;;;;;;;;;20.40;60.30;;;;;;5065062;28;1026;-72
2023/12/15 09:04:16;;;;;;;;;;;20.40;60.30;;;;;;5058347;28;1488;-71
2023/12/15 09:06:41;;;;;;;;;;;20.40;60.40;;;;;;5057040;28;1909;-71
2023/12/15 09:09:07;;;;;;;;;;;20.30;60.40;;;;;;5054272;28;1548;-71
2023/12/15 09:11:33;;;;;;;;;;;20.30;60.30;;;;;;5090018;28;1447;-73
2023/12/15 09:14:01;;;;;;;;;;;20.30;60.40;;;;;;5057057;28;1341;-71
2023/12/15 09:16:26;;;;;;;;;;;20.30;60.40;;;;;;5058285;28;1977;-71
2023/12/15 09:18:52;;;;;;;;;;;20.30;60.50;;;;;;5057215;28;1502;-71
2023/12/15 09:21:18;;;;;;;;;;;20.30;60.70;;;;;;5057139;28;1351;-72
2023/12/15 09:23:43;;;;;;;;;;;20.30;60.70;;;;;;5058736;28;1711;-71
2023/12/15 09:26:08;;;;;;;;;;;20.30;60.90;;;;;;5092171;28;1297;-71
2023/12/15 09:28:34;;;;;;;;;;;20.30;61.10;;;;;;5056698;28;1384;-70
2023/12/15 09:31:00;;;;;;;;;;;20.30;61.20;;;;;;5056020;28;1190;-71
2023/12/15 09:33:25;;;;;;;;;;;20.30;61.30;;;;;;5057506;28;1338;-71
2023/12/15 09:35:53;;;;;;;;;;;20.30;61.40;;;;;;5058633;28;1906;-71
2023/12/15 09:38:20;;;;;;;;;;;20.30;61.40;;;;;;5060224;28;1409;-70
2023/12/15 09:40:45;;;;;;;;;;;20.30;61.40;;;;;;5060143;28;1311;-70
2023/12/15 09:43:11;;;;;;;;;;;20.30;61.40;;;;;;5058661;28;1537;-70
2023/12/15 09:45:36;;;;;;;;;;;20.30;61.40;;;;;;5090390;28;1373;-71
2023/12/15 09:48:03;;;;;;;;;;;20.30;61.50;;;;;;5056211;28;1363;-69
2023/12/15 09:50:30;;;;;;;;;;;20.30;61.40;;;;;;5056948;28;2296;-70
2023/12/15 09:52:56;;;;;;;;;;;20.30;61.40;;;;;;5057193;28;1528;-70
2023/12/15 09:55:21;;;;;;;;;;;20.30;61.50;;;;;;5089519;28;1961;-70
2023/12/15 09:57:47;;;;;;;;;;;20.30;61.50;;;;;;5091257;28;1537;-71
2023/12/15 10:00:13;;;;;;;;;;;20.30;61.40;;;;;;5057949;28;1529;-71
2023/12/15 10:02:38;;;;;;;;;;;20.30;61.50;;;;;;5058763;28;1521;-71
2023/12/15 10:05:04;;;;;;;;;;;20.30;61.50;;;;;;5090379;28;1367;-71
2023/12/15 10:07:29;;;;;;;;;;;20.30;61.50;;;;;;5091493;28;1508;-69
2023/12/15 10:09:55;;;;;;;;;;;20.30;61.50;;;;;;5058749;28;1518;-70
2023/12/15 10:12:20;;;;;;;;;;;20.30;61.50;;;;;;5057701;28;1352;-72
2023/12/15 10:14:46;;;;;;;;;;;20.30;61.50;;;;;;5056562;28;1914;-70
2023/12/15 10:17:11;;;;;;;;;;;20.30;61.60;;;;;;5094056;28;1263;-72
2023/12/15 10:19:37;;;;;;;;;;;20.30;61.50;;;;;;5057585;28;1272;-71
2023/12/15 10:22:02;;;;;;;;;;;20.30;61.50;;;;;;5056144;28;1337;-70
2023/12/15 10:24:28;;;;;;;;;;;20.30;61.60;;;;;;5052866;28;1366;-71
2023/12/15 10:26:53;;;;;;;;;;;20.30;61.60;;;;;;5058526;28;933;-71
2023/12/15 10:29:19;;;;;;;;;;;20.30;61.70;;;;;;5059954;28;1361;-71
2023/12/15 10:31:45;;;;;;;;;;;20.30;61.60;;;;;;5090463;28;1194;-70
2023/12/15 10:34:10;;;;;;;;;;;20.30;61.70;;;;;;5058610;28;1030;-71
2023/12/15 10:36:36;;;;;;;;;;;20.30;61.70;;;;;;5058735;28;1902;-71
2023/12/15 10:39:02;;;;;;;;;;;20.30;61.70;;;;;;5057012;28;1481;-71
2023/12/15 10:41:31;;;;;;;;;;;20.30;61.80;;;;;;5053436;28;1487;-71
2023/12/15 10:43:58;;;;;;;;;;;20.20;61.80;;;;;;5054206;28;1371;-69
2023/12/15 10:46:23;;;;;;;;;;;20.20;61.80;;;;;;5090661;28;1345;-71
2023/12/15 10:48:49;;;;;;;;;;;20.20;62.10;;;;;;5057847;28;1581;-71
2023/12/15 10:51:14;;;;;;;;;;;20.20;62.20;;;;;;5092252;28;1356;-71
2023/12/15 10:53:40;;;;;;;;;;;20.20;62.20;;;;;;5078659;28;1510;-71
2023/12/15 10:56:06;;;;;;;;;;;20.30;62.70;;;;;;5089609;28;2009;-70
2023/12/15 10:58:31;;;;;;;;;;;20.20;62.70;;;;;;5087568;28;1330;-71
2023/12/15 11:00:57;;;;;;;;;;;20.30;62.80;;;;;;5089531;28;1294;-70
2023/12/15 11:03:23;;;;;;;;;;;20.30;62.40;;;;;;5054476;28;1506;-71
2023/12/15 11:05:49;;;;;;;;;;;20.20;62.40;;;;;;5058564;28;1347;-71
2023/12/15 11:08:14;;;;;;;;;;;20.20;62.40;;;;;;5055140;28;1477;-71
2023/12/15 11:10:40;;;;;;;;;;;20.20;62.30;;;;;;5090586;28;1336;-68
2023/12/15 11:13:25;;;;;;;;;;;20.20;62.30;;;;;;5056911;28;1330;-70
2023/12/15 11:15:51;;;;;;;;;;;20.20;62.40;;;;;;5056271;28;1965;-71
2023/12/15 11:18:16;;;;;;;;;;;20.20;62.40;;;;;;5055857;28;1394;-69
2023/12/15 11:20:42;;;;;;;;;;;20.20;62.50;;;;;;5055861;28;1830;-70
2023/12/15 11:23:09;;;;;;;;;;;20.20;62.60;;;;;;5056859;28;2156;-70
2023/12/15 11:25:35;;;;;;;;;;;20.20;62.60;;;;;;5057170;28;1563;-71
2023/12/15 11:28:07;;;;;;;;;;;20.20;62.60;;;;;;5058794;28;1740;-70
2023/12/15 11:30:34;;;;;;;;;;;20.20;62.70;;;;;;5059941;28;1320;-70
2023/12/15 11:33:00;;;;;;;;;;;20.20;62.70;;;;;;5058009;28;1319;-70
2023/12/15 11:35:31;;;;;;;;;;;20.20;62.70;;;;;;5059271;28;1961;-71
2023/12/15 11:37:57;;;;;;;;;;;20.20;62.80;;;;;;5063161;28;1539;-69
2023/12/15 11:40:23;;;;;;;;;;;20.20;62.80;;;;;;5091226;28;1333;-70
2023/12/15 11:42:51;;;;;;;;;;;20.20;62.90;;;;;;5062131;28;1912;-69
2023/12/15 11:45:17;;;;;;;;;;;20.20;62.70;;;;;;5046400;28;1548;-70
2023/12/15 11:47:43;;;;;;;;;;;20.20;62.80;;;;;;5094154;28;1436;-68
2023/12/15 11:50:09;;;;;;;;;;;20.20;62.80;;;;;;5046541;28;1445;-70
2023/12/15 11:52:38;;;;;;;;;;;20.20;63.10;;;;;;5091762;28;1865;-68
2023/12/15 11:55:04;;;;;;;;;;;20.20;63.10;;;;;;5094199;28;1901;-70
2023/12/15 11:57:30;;;;;;;;;;;20.20;63.00;;;;;;5056618;28;1260;-70
2023/12/15 11:59:55;;;;;;;;;;;20.20;63.10;;;;;;5058607;28;1421;-70
2023/12/15 12:02:21;;;;;;;;;;;20.20;63.10;;;;;;5094125;28;1969;-71
2023/12/15 12:04:46;;;;;;;;;;;20.20;63.20;;;;;;5060077;28;1298;-71
2023/12/15 12:07:12;;;;;;;;;;;20.20;63.20;;;;;;5060079;28;1432;-71
2023/12/15 12:09:38;;;;;;;;;;;20.20;63.10;;;;;;5058905;28;1296;-70
2023/12/15 12:12:04;;;;;;;;;;;20.20;63.20;;;;;;5059886;28;1080;-70
2023/12/15 12:14:29;;;;;;;;;;;20.20;63.40;;;;;;5062544;28;1246;-69
2023/12/15 12:16:55;;;;;;;;;;;20.20;63.50;;;;;;5061938;28;1963;-70
2023/12/15 12:19:21;;;;;;;;;;;20.20;63.50;;;;;;5091689;28;1507;-69
2023/12/15 12:21:49;;;;;;;;;;;20.20;63.50;;;;;;5059651;28;1897;-71
2023/12/15 12:24:15;;;;;;;;;;;20.20;63.70;;;;;;5092051;28;1495;-70
2023/12/15 12:26:41;;;;;;;;;;;20.20;63.70;;;;;;5060537;28;1448;-71
2023/12/15 12:29:06;;;;;;;;;;;20.20;64.00;;;;;;5060122;28;1362;-72
2023/12/15 12:31:32;;;;;;;;;;;20.20;64.00;;;;;;5062283;28;1422;-71
2023/12/15 12:33:57;;;;;;;;;;;20.20;64.10;;;;;;5060126;28;1379;-71
2023/12/15 12:36:22;;;;;;;;;;;20.20;64.10;;;;;;5059022;28;1959;-71
2023/12/15 12:38:49;;;;;;;;;;;20.20;64.20;;;;;;5061672;28;1363;-71
2023/12/15 12:41:14;;;;;;;;;;;20.20;64.40;;;;;;5080847;28;1387;-70
2023/12/15 12:43:41;;;;;;;;;;;20.20;64.20;;;;;;5091959;28;1666;-71
2023/12/15 12:46:08;;;;;;;;;;;20.30;64.90;;;;;;5056850;28;1356;-71
2023/12/15 12:48:33;;;;;;;;;;;20.30;64.80;;;;;;5090694;28;1522;-72
2023/12/15 12:50:59;;;;;;;;;;;20.30;64.50;;;;;;5059327;28;1511;-72
2023/12/15 12:53:25;;;;;;;;;;;20.30;64.40;;;;;;5059802;28;1313;-72
2023/12/15 12:55:52;;;;;;;;;;;20.30;64.40;;;;;;5057196;28;1905;-71
2023/12/15 12:58:18;;;;;;;;;;;20.30;64.50;;;;;;5060397;28;1506;-72
2023/12/15 13:00:43;;;;;;;;;;;20.40;64.40;;;;;;5058993;28;2031;-71
2023/12/15 13:03:09;;;;;;;;;;;20.30;64.40;;;;;;5092042;28;1923;-72
2023/12/15 13:05:35;;;;;;;;;;;20.30;63.20;;;;;;5058013;28;1473;-72
2023/12/15 13:08:01;;;;;;;;;;;20.30;58.50;;;;;;5059663;28;1143;-72
2023/12/15 13:10:26;;;;;;;;;;;20.30;57.00;;;;;;5060444;28;1231;-72
2023/12/15 13:12:55;;;;;;;;;;;20.20;56.10;;;;;;5061936;28;1240;-70
2023/12/15 13:15:28;;;;;;;;;;;20.10;55.60;;;;;;5062461;28;1959;-71
2023/12/15 13:17:59;;;;;;;;;;;20.00;55.10;;;;;;5058043;28;1315;-71
2023/12/15 13:20:25;;;;;;;;;;;20.00;54.90;;;;;;5059281;28;1402;-71
2023/12/15 13:22:50;;;;;;;;;;;19.90;54.50;;;;;;5063141;28;858;-71
2023/12/15 13:25:15;;;;;;;;;;;19.90;54.20;;;;;;5053461;28;4589;-69
2023/12/15 13:27:41;;;;;;;;;;;19.80;54.00;;;;;;5059374;28;1294;-69
2023/12/15 13:30:09;;;;;;;;;;;19.80;53.90;;;;;;5062575;28;1554;-72
2023/12/15 13:32:35;;;;;;;;;;;19.80;53.60;;;;;;5062100;28;1033;-71
2023/12/15 13:35:00;;;;;;;;;;;19.70;53.40;;;;;;5056870;28;1969;-73
2023/12/15 13:37:25;;;;;;;;;;;19.70;54.40;;;;;;5058833;28;1355;-72
2023/12/15 13:39:51;;;;;;;;;;;19.70;54.90;;;;;;5057294;28;1359;-73
2023/12/15 13:42:18;;;;;;;;;;;19.70;55.30;;;;;;5059334;28;1464;-72
2023/12/15 13:44:44;;;;;;;;;;;19.60;55.60;;;;;;5087851;28;1445;-72
2023/12/15 13:47:09;;;;;;;;;;;19.60;56.00;;;;;;5061229;28;1199;-71
2023/12/15 13:49:35;;;;;;;;;;;19.60;56.40;;;;;;5056529;28;1374;-72
2023/12/15 13:52:00;;;;;;;;;;;19.60;56.70;;;;;;5059573;28;1546;-72
2023/12/15 13:54:26;;;;;;;;;;;19.60;56.90;;;;;;5055555;28;2157;-73
2023/12/15 13:56:52;;;;;;;;;;;19.60;57.10;;;;;;5054520;28;1969;-70
2023/12/15 13:59:19;;;;;;;;;;;19.60;57.30;;;;;;5059636;28;1252;-71
2023/12/15 14:01:45;;;;;;;;;;;19.60;58.20;;;;;;5060558;28;1570;-71
2023/12/15 14:04:10;;;;;;;;;;;19.60;57.70;;;;;;5057493;28;1473;-69
2023/12/15 14:06:36;;;;;;;;;;;19.60;57.90;;;;;;5059093;28;1237;-70
2023/12/15 14:09:01;;;;;;;;;;;19.60;58.00;;;;;;5057498;28;1751;-70
2023/12/15 14:11:27;;;;;;;;;;;19.60;58.20;;;;;;5088680;28;1635;-69
2023/12/15 14:13:52;;;;;;;;;;;19.60;58.30;;;;;;5056366;28;1293;-70
2023/12/15 14:16:18;;;;;;;;;;;19.50;58.40;;;;;;5056554;28;2001;-70
2023/12/15 14:18:43;;;;;;;;;;;19.50;58.50;;;;;;5056673;28;1597;-70
2023/12/15 14:21:09;;;;;;;;;;;19.50;58.60;;;;;;5060370;28;1368;-70